Time;durP1;ratioP1;P1;durP2;ratioP2;P2;SDS_P1;SDS_P2;PMS_P1;PMS_P2;Temp;Humidity;BMP_temperature;BMP_pressure;BME280_temperature;BME280_humidity;BME280_pressure;Samples;Min_cycle;Max_cycle;Signal;HPM_P1;HPM_P2
2021/04/03 00:01:25;;;;;;;1.85;0.70;;;8.60;66.20;;;;;;4994296;28;20023;-75
2021/04/03 00:03:51;;;;;;;1.02;0.75;;;8.60;66.30;;;;;;4994042;28;20023;-75
2021/04/03 00:06:16;;;;;;;3.25;0.93;;;8.50;66.30;;;;;;4976837;28;20035;-75
2021/04/03 00:08:42;;;;;;;0.73;0.60;;;8.60;66.20;;;;;;4993956;28;20062;-75
2021/04/03 00:11:08;;;;;;;2.97;1.00;;;8.70;66.10;;;;;;4976621;28;20489;-75
2021/04/03 00:13:37;;;;;;;2.00;0.70;;;8.70;66.00;;;;;;4993643;28;20065;-76
2021/04/03 00:16:04;;;;;;;1.83;0.70;;;8.70;65.90;;;;;;4993975;28;20033;-75
2021/04/03 00:18:30;;;;;;;3.42;0.68;;;8.70;65.80;;;;;;4994130;28;20034;-75
2021/04/03 00:20:56;;;;;;;2.20;0.90;;;8.70;65.80;;;;;;4993548;28;20030;-77
2021/04/03 00:23:21;;;;;;;3.13;1.15;;;8.70;65.80;;;;;;4993853;28;20133;-74
2021/04/03 00:25:48;;;;;;;1.30;0.75;;;8.80;65.80;;;;;;4993470;28;20378;-75
2021/04/03 00:28:14;;;;;;;1.90;0.55;;;8.80;65.60;;;;;;4993866;28;20030;-75
2021/04/03 00:30:40;;;;;;;1.63;1.00;;;8.80;65.60;;;;;;4975901;28;20026;-75
2021/04/03 00:33:07;;;;;;;2.38;0.77;;;8.70;65.60;;;;;;4993820;28;20034;-75
2021/04/03 00:35:35;;;;;;;1.73;0.70;;;8.80;65.60;;;;;;4993344;28;20027;-74
2021/04/03 00:38:02;;;;;;;1.00;0.68;;;8.80;65.50;;;;;;4993549;28;20026;-75
2021/04/03 00:40:48;;;;;;;1.33;0.82;;;8.80;65.40;;;;;;4993793;28;20032;-75
2021/04/03 00:43:16;;;;;;;1.88;0.90;;;8.90;66.00;;;;;;4993930;28;20026;-75
2021/04/03 00:45:43;;;;;;;1.52;0.68;;;8.80;65.30;;;;;;4992816;28;20027;-75
2021/04/03 00:48:09;;;;;;;2.60;0.93;;;8.80;65.30;;;;;;4995522;28;20022;-75
2021/04/03 00:50:41;;;;;;;2.70;1.00;;;8.80;65.40;;;;;;4993963;28;20411;-75
2021/04/03 00:53:11;;;;;;;2.55;0.60;;;8.80;65.40;;;;;;4985689;28;20113;-75
2021/04/03 00:55:38;;;;;;;4.05;1.15;;;8.80;65.50;;;;;;4973590;28;20023;-75
2021/04/03 00:58:04;;;;;;;5.28;1.05;;;8.80;65.40;;;;;;4972770;28;20027;-75
2021/04/03 01:00:29;;;;;;;1.05;1.02;;;8.80;65.30;;;;;;4973898;28;20014;-76
2021/04/03 01:02:55;;;;;;;9.48;1.20;;;8.80;65.20;;;;;;4973116;28;20457;-74
2021/04/03 01:05:24;;;;;;;1.05;0.70;;;8.90;65.30;;;;;;4974207;28;20431;-75
2021/04/03 01:07:50;;;;;;;1.05;0.65;;;8.90;65.20;;;;;;4973179;28;20537;-75
2021/04/03 01:10:19;;;;;;;5.07;1.00;;;8.90;65.20;;;;;;4972533;28;20077;-75
2021/04/03 01:12:56;;;;;;;1.05;0.80;;;8.90;65.20;;;;;;4973129;28;20031;-75
2021/04/03 01:15:40;;;;;;;3.08;0.90;;;8.90;65.10;;;;;;4972571;28;20034;-74
2021/04/03 01:18:15;;;;;;;4.10;0.90;;;8.90;65.00;;;;;;4973380;28;20065;-75
2021/04/03 01:20:48;;;;;;;4.25;0.93;;;8.80;65.00;;;;;;4971391;28;20122;-75
2021/04/03 01:23:47;;;;;;;3.65;1.45;;;8.90;65.00;;;;;;4973410;28;20514;-75
2021/04/03 01:26:39;;;;;;;1.48;0.80;;;8.80;64.80;;;;;;4973308;28;20037;-74
2021/04/03 01:29:41;;;;;;;3.20;1.08;;;8.80;65.20;;;;;;4972840;28;20181;-75
2021/04/03 01:32:08;;;;;;;0.75;0.60;;;8.80;64.90;;;;;;4956045;28;20375;-74
2021/04/03 01:34:38;;;;;;;1.33;0.70;;;8.70;65.00;;;;;;4973411;28;20031;-75
2021/04/03 01:37:12;;;;;;;1.35;0.93;;;8.80;65.00;;;;;;4973051;28;20436;-75
2021/04/03 01:39:40;;;;;;;1.95;0.85;;;8.80;64.90;;;;;;4972742;28;20023;-74
2021/04/03 01:42:11;;;;;;;2.80;0.95;;;8.80;64.90;;;;;;4973060;28;20059;-75
2021/04/03 01:44:43;;;;;;;1.60;0.60;;;8.80;64.90;;;;;;4973662;28;20036;-75
2021/04/03 01:47:09;;;;;;;2.80;0.80;;;8.80;64.90;;;;;;4972966;28;20453;-76
2021/04/03 01:49:36;;;;;;;2.90;0.70;;;8.70;64.80;;;;;;4973207;28;20083;-75
2021/04/03 01:52:03;;;;;;;4.38;0.90;;;8.80;64.90;;;;;;4972144;28;20222;-75
2021/04/03 01:54:30;;;;;;;5.57;0.88;;;8.80;64.80;;;;;;4973212;28;20486;-74
2021/04/03 01:56:57;;;;;;;4.13;1.33;;;8.80;64.70;;;;;;4972531;28;20545;-75
2021/04/03 01:59:23;;;;;;;5.60;1.20;;;8.80;64.80;;;;;;4955765;28;20022;-75
2021/04/03 02:01:54;;;;;;;1.50;0.60;;;8.80;64.80;;;;;;4971188;28;20023;-74
2021/04/03 02:04:21;;;;;;;2.22;0.80;;;8.80;64.70;;;;;;4971778;28;20460;-74
2021/04/03 02:06:47;;;;;;;2.10;1.13;;;8.90;64.70;;;;;;4955015;28;20042;-74
2021/04/03 02:09:15;;;;;;;3.33;1.15;;;8.90;64.60;;;;;;4973471;28;20041;-75
2021/04/03 02:11:46;;;;;;;1.23;0.70;;;8.90;64.70;;;;;;4971178;28;20018;-75
2021/04/03 02:14:12;;;;;;;1.30;0.65;;;8.90;64.60;;;;;;4972662;28;20041;-75
2021/04/03 02:16:40;;;;;;;7.15;0.82;;;8.80;64.60;;;;;;4972975;28;20058;-75
2021/04/03 02:19:08;;;;;;;2.20;0.50;;;8.80;64.60;;;;;;4972569;28;20419;-74
2021/04/03 02:21:35;;;;;;;3.58;1.13;;;8.90;64.50;;;;;;4973075;28;20034;-75
2021/04/03 02:24:02;;;;;;;3.28;0.90;;;8.90;64.40;;;;;;4972435;28;20135;-75
2021/04/03 02:26:36;;;;;;;5.22;0.90;;;8.80;64.40;;;;;;4972700;28;20026;-75
2021/04/03 02:29:05;;;;;;;4.88;0.85;;;8.80;64.40;;;;;;4972337;28;20031;-73
2021/04/03 02:31:33;;;;;;;3.75;1.30;;;8.80;64.40;;;;;;4972721;28;20099;-75
2021/04/03 02:33:58;;;;;;;1.70;0.70;;;8.80;64.40;;;;;;4972299;28;20023;-75
2021/04/03 02:36:24;;;;;;;2.88;0.82;;;8.80;64.40;;;;;;4972811;28;20530;-75
2021/04/03 02:38:51;;;;;;;5.03;1.25;;;8.80;64.20;;;;;;4971771;28;20034;-73
2021/04/03 02:41:22;;;;;;;2.75;0.90;;;8.90;64.20;;;;;;4976003;28;20055;-75
2021/04/03 02:43:54;;;;;;;;;;;8.80;64.20;;;;;;4976422;28;20023;-75
2021/04/03 02:46:33;;;;;;;2.35;0.60;;;8.80;64.20;;;;;;4976253;28;20286;-73
2021/04/03 02:49:04;;;;;;;0.93;0.55;;;8.80;64.20;;;;;;4975936;28;20015;-75
2021/04/03 02:51:41;;;;;;;1.50;0.73;;;8.80;64.20;;;;;;4976333;28;20023;-75
2021/04/03 02:54:08;;;;;;;2.30;0.70;;;8.80;64.20;;;;;;4975782;28;20474;-75
2021/04/03 02:56:37;;;;;;;2.33;0.57;;;8.70;64.30;;;;;;4975271;28;20026;-75
2021/04/03 02:59:03;;;;;;;4.47;0.80;;;8.70;64.30;;;;;;4975961;28;20023;-75
2021/04/03 03:01:29;;;;;;;2.45;0.70;;;8.70;64.30;;;;;;4976597;28;20019;-74
2021/04/03 03:03:56;;;;;;;1.25;0.70;;;8.60;64.40;;;;;;4975826;28;20025;-74
2021/04/03 03:06:23;;;;;;;1.77;1.05;;;8.60;64.50;;;;;;4976273;28;20031;-75
2021/04/03 03:08:51;;;;;;;3.70;0.85;;;8.60;64.60;;;;;;4975515;28;20053;-75
2021/04/03 03:11:18;;;;;;;5.00;0.93;;;8.60;64.50;;;;;;4975693;28;20026;-75
2021/04/03 03:13:45;;;;;;;8.65;1.00;;;8.60;64.50;;;;;;4975900;28;20027;-75
2021/04/03 03:16:13;;;;;;;5.10;1.30;;;8.60;64.60;;;;;;4975695;28;20027;-76
2021/04/03 03:18:40;;;;;;;2.03;0.65;;;8.60;64.60;;;;;;4975727;28;20427;-75
2021/04/03 03:21:07;;;;;;;7.75;1.58;;;8.60;64.60;;;;;;4975238;28;20038;-75
2021/04/03 03:23:33;;;;;;;4.45;0.80;;;8.50;64.70;;;;;;4974094;28;20051;-74
2021/04/03 03:25:59;;;;;;;3.65;0.88;;;8.50;64.80;;;;;;4974885;28;20474;-75
2021/04/03 03:28:26;;;;;;;2.83;1.08;;;8.50;65.00;;;;;;4975371;28;20031;-74
2021/04/03 03:30:53;;;;;;;3.72;0.93;;;8.40;65.10;;;;;;4974988;28;20027;-74
2021/04/03 03:33:19;;;;;;;1.75;1.15;;;8.30;65.20;;;;;;4975572;28;20118;-74
2021/04/03 03:35:45;;;;;;;0.98;0.52;;;8.30;65.30;;;;;;4975522;28;20482;-76
2021/04/03 03:38:12;;;;;;;2.08;0.60;;;8.30;65.50;;;;;;4974605;28;20018;-75
2021/04/03 03:40:37;;;;;;;2.33;0.93;;;8.20;65.60;;;;;;4975472;28;20076;-74
2021/04/03 03:43:04;;;;;;;2.60;1.67;;;8.20;65.80;;;;;;4974875;28;20110;-74
2021/04/03 03:45:29;;;;;;;2.67;1.00;;;8.10;65.90;;;;;;4975348;28;20041;-74
2021/04/03 03:47:55;;;;;;;6.68;2.03;;;8.10;65.90;;;;;;4973494;28;20442;-74
2021/04/03 03:50:21;;;;;;;4.40;1.15;;;8.10;65.90;;;;;;4975327;28;20030;-75
2021/04/03 03:52:47;;;;;;;1.38;0.93;;;8.10;66.00;;;;;;4974167;28;20435;-75
2021/04/03 03:55:13;;;;;;;6.18;1.40;;;8.00;66.00;;;;;;4975213;28;20035;-74
2021/04/03 03:57:39;;;;;;;4.82;1.13;;;8.00;66.00;;;;;;4975196;28;20034;-75
2021/04/03 04:00:06;;;;;;;1.48;0.70;;;8.00;66.10;;;;;;4974568;28;20058;-74
2021/04/03 04:02:32;;;;;;;2.63;1.00;;;7.90;66.30;;;;;;4975047;28;20019;-73
2021/04/03 04:04:58;;;;;;;6.00;1.10;;;7.90;66.40;;;;;;4974430;28;20078;-74
2021/04/03 04:07:24;;;;;;;5.25;1.23;;;7.90;66.50;;;;;;4957667;28;20502;-74
2021/04/03 04:09:50;;;;;;;6.03;1.63;;;7.90;66.60;;;;;;4974333;28;20026;-72
2021/04/03 04:12:16;;;;;;;3.70;1.08;;;7.80;66.70;;;;;;4974882;28;20027;-73
2021/04/03 04:14:41;;;;;;;2.63;0.90;;;7.80;66.80;;;;;;4975210;28;20027;-74
2021/04/03 04:17:07;;;;;;;3.90;1.15;;;7.80;66.90;;;;;;4974009;28;20019;-75
2021/04/03 04:19:33;;;;;;;3.03;1.23;;;7.80;67.00;;;;;;4974776;28;20478;-74
2021/04/03 04:22:01;;;;;;;4.32;1.08;;;7.70;66.90;;;;;;4974162;28;20368;-74
2021/04/03 04:24:26;;;;;;;4.85;0.85;;;7.70;67.00;;;;;;4974754;28;20112;-74
2021/04/03 04:26:52;;;;;;;2.35;1.08;;;7.70;67.10;;;;;;4973806;28;20515;-75
2021/04/03 04:29:18;;;;;;;3.97;1.80;;;7.70;67.20;;;;;;4974753;28;20027;-74
2021/04/03 04:31:44;;;;;;;4.80;1.00;;;7.70;67.20;;;;;;4973337;28;20019;-74
2021/04/03 04:34:09;;;;;;;6.32;1.15;;;7.70;67.20;;;;;;4973692;28;20431;-74
2021/04/03 04:36:35;;;;;;;5.47;0.88;;;7.70;67.20;;;;;;4973289;28;20030;-74
2021/04/03 04:39:01;;;;;;;2.33;0.80;;;7.80;67.30;;;;;;4973853;28;20432;-75
2021/04/03 04:41:27;;;;;;;4.95;0.98;;;7.70;67.30;;;;;;4974329;28;20049;-74
2021/04/03 04:43:53;;;;;;;7.35;1.20;;;7.70;67.40;;;;;;4973396;28;20351;-71
2021/04/03 04:46:19;;;;;;;3.95;1.25;;;7.70;67.50;;;;;;4974085;28;20019;-75
2021/04/03 04:48:45;;;;;;;6.20;1.42;;;7.70;67.50;;;;;;4974151;28;20078;-74
2021/04/03 04:51:10;;;;;;;6.82;1.00;;;7.70;67.60;;;;;;4972309;28;20027;-74
2021/04/03 04:53:36;;;;;;;3.47;1.05;;;7.60;67.60;;;;;;4973859;28;20455;-73
2021/04/03 04:56:02;;;;;;;5.25;0.98;;;7.60;67.70;;;;;;4973252;28;20027;-74
2021/04/03 04:58:27;;;;;;;5.47;1.23;;;7.60;67.90;;;;;;4974364;28;20019;-74
2021/04/03 05:00:53;;;;;;;1.00;0.77;;;7.60;67.90;;;;;;4979869;28;20066;-75
2021/04/03 05:03:18;;;;;;;2.50;0.98;;;7.60;68.00;;;;;;4993593;28;20446;-75
2021/04/03 05:05:44;;;;;;;8.52;1.40;;;7.60;68.10;;;;;;4993737;28;20380;-75
2021/04/03 05:08:10;;;;;;;7.00;1.33;;;7.50;68.10;;;;;;4992908;28;20053;-74
2021/04/03 05:10:35;;;;;;;5.53;1.35;;;7.60;68.10;;;;;;4993513;28;20370;-75
2021/04/03 05:13:04;;;;;;;2.25;0.90;;;7.60;68.00;;;;;;4992708;28;20076;-74
2021/04/03 05:15:30;;;;;;;6.35;1.17;;;7.60;68.00;;;;;;4993180;28;20134;-75
2021/04/03 05:17:56;;;;;;;6.22;1.27;;;7.70;68.00;;;;;;4992544;28;20419;-75
2021/04/03 05:20:23;;;;;;;5.00;1.05;;;7.70;68.00;;;;;;4992973;28;20033;-74
2021/04/03 05:22:49;;;;;;;4.15;1.33;;;7.70;68.10;;;;;;4992738;28;20035;-74
2021/04/03 05:25:15;;;;;;;6.00;1.27;;;7.70;68.20;;;;;;4992118;28;20054;-74
2021/04/03 05:27:41;;;;;;;3.80;1.02;;;7.70;68.30;;;;;;4975549;28;20084;-74
2021/04/03 05:30:08;;;;;;;2.33;1.20;;;7.70;68.30;;;;;;4992220;28;20061;-74
2021/04/03 05:32:34;;;;;;;5.15;1.77;;;7.70;68.20;;;;;;4992810;28;20122;-74
2021/04/03 05:35:00;;;;;;;3.95;1.33;;;7.80;68.30;;;;;;4992340;28;20454;-74
2021/04/03 05:37:26;;;;;;;5.63;0.82;;;7.80;68.30;;;;;;4992865;28;20027;-75
2021/04/03 05:39:51;;;;;;;6.50;1.10;;;7.80;68.30;;;;;;4993075;28;20022;-74
2021/04/03 05:42:19;;;;;;;4.00;1.33;;;7.80;68.30;;;;;;4992034;28;20469;-74
2021/04/03 05:44:45;;;;;;;4.55;1.20;;;7.80;68.40;;;;;;4992659;28;20404;-75
2021/04/03 05:47:12;;;;;;;2.33;0.90;;;7.80;68.60;;;;;;4991806;28;20018;-73
2021/04/03 05:49:39;;;;;;;7.38;1.85;;;7.80;68.60;;;;;;4975091;28;20018;-74
2021/04/03 05:52:06;;;;;;;2.90;0.98;;;7.80;68.80;;;;;;4991918;28;20046;-75
2021/04/03 05:54:39;;;;;;;4.32;1.52;;;7.70;69.00;;;;;;4992647;28;20023;-75
2021/04/03 05:57:06;;;;;;;11.95;2.30;;;7.70;69.20;;;;;;4992171;28;20018;-74
2021/04/03 05:59:35;;;;;;;4.00;1.30;;;7.60;69.30;;;;;;4992570;28;20027;-74
2021/04/03 06:02:03;;;;;;;7.18;1.92;;;7.60;69.40;;;;;;4992048;28;20027;-75
2021/04/03 06:04:28;;;;;;;7.03;1.45;;;7.60;69.60;;;;;;4992853;28;20029;-74
2021/04/03 06:06:55;;;;;;;9.80;1.42;;;7.60;69.70;;;;;;4992139;28;20022;-74
2021/04/03 06:09:21;;;;;;;3.70;1.17;;;7.60;69.60;;;;;;4991600;28;20023;-75
2021/04/03 06:11:50;;;;;;;4.88;1.38;;;7.70;69.70;;;;;;4992396;28;20050;-75
2021/04/03 06:14:19;;;;;;;6.68;1.33;;;7.80;69.70;;;;;;4991518;28;20034;-74
2021/04/03 06:16:49;;;;;;;2.25;1.40;;;7.80;69.70;;;;;;4996418;28;20022;-74
2021/04/03 06:19:19;;;;;;;6.45;2.67;;;7.80;69.70;;;;;;4995820;28;20105;-74
2021/04/03 06:22:01;;;;;;;4.93;1.65;;;7.80;69.70;;;;;;4996535;28;20054;-74
2021/04/03 06:24:29;;;;;;;5.10;1.10;;;7.80;70.00;;;;;;4996133;28;20066;-74
2021/04/03 06:27:04;;;;;;;7.18;1.55;;;7.80;70.00;;;;;;4996414;28;20022;-74
2021/04/03 06:29:34;;;;;;;4.70;1.33;;;7.90;70.10;;;;;;4996293;28;20026;-75
2021/04/03 06:32:00;;;;;;;7.18;1.27;;;7.90;70.20;;;;;;4977949;28;20034;-74
2021/04/03 06:34:26;;;;;;;9.25;2.03;;;7.90;70.20;;;;;;4996123;28;20110;-76
2021/04/03 06:36:51;;;;;;;12.18;2.00;;;7.90;70.30;;;;;;4996176;28;20028;-75
2021/04/03 06:39:17;;;;;;;7.30;1.83;;;7.90;70.40;;;;;;4995502;28;20081;-75
2021/04/03 06:41:43;;;;;;;5.05;1.75;;;8.00;70.60;;;;;;4996120;28;20023;-74
2021/04/03 06:44:10;;;;;;;10.07;1.80;;;8.00;70.80;;;;;;4977812;28;20361;-74
2021/04/03 06:46:38;;;;;;;3.95;1.08;;;8.00;70.70;;;;;;4978684;28;20026;-74
2021/04/03 06:49:05;;;;;;;5.85;1.52;;;8.00;70.80;;;;;;4977858;28;20026;-73
2021/04/03 06:51:31;;;;;;;3.55;1.25;;;8.00;70.80;;;;;;4996142;28;20030;-75
2021/04/03 06:53:59;;;;;;;3.22;1.73;;;8.00;70.80;;;;;;4995677;28;20045;-75
2021/04/03 06:56:34;;;;;;;3.83;1.25;;;8.10;70.70;;;;;;4994909;28;20106;-74
2021/04/03 06:59:04;;;;;;;2.65;1.05;;;8.10;70.70;;;;;;4995862;28;20431;-74
2021/04/03 07:01:36;;;;;;;9.30;1.70;;;8.10;70.70;;;;;;4995804;28;20058;-74
2021/04/03 07:04:09;;;;;;;7.55;1.35;;;8.10;70.80;;;;;;4995675;28;20050;-74
2021/04/03 07:06:36;;;;;;;4.63;1.15;;;8.10;71.20;;;;;;4978462;28;20030;-74
2021/04/03 07:09:05;;;;;;;7.95;1.60;;;8.10;70.90;;;;;;4995435;28;20060;-74
2021/04/03 07:11:32;;;;;;;3.85;1.98;;;8.10;70.90;;;;;;4995524;28;20030;-74
2021/04/03 07:14:00;;;;;;;6.18;2.10;;;8.10;70.80;;;;;;4977869;28;20075;-74
2021/04/03 07:16:26;;;;;;;3.78;1.13;;;8.20;70.70;;;;;;4977343;28;20161;-75
2021/04/03 07:18:54;;;;;;;7.78;1.92;;;8.30;70.60;;;;;;4977867;28;20430;-74
2021/04/03 07:21:21;;;;;;;6.97;1.52;;;8.30;70.50;;;;;;4994958;28;20073;-75
2021/04/03 07:23:47;;;;;;;4.45;1.30;;;8.30;70.30;;;;;;4977801;28;20050;-75
2021/04/03 07:26:15;;;;;;;9.73;1.58;;;8.40;70.10;;;;;;4993727;28;20042;-75
2021/04/03 07:28:42;;;;;;;4.85;1.42;;;8.40;70.10;;;;;;4995339;28;20106;-75
2021/04/03 07:31:09;;;;;;;7.70;2.58;;;8.50;70.10;;;;;;4994433;28;20487;-74
2021/04/03 07:33:47;;;;;;;6.32;1.55;;;8.50;69.90;;;;;;4994984;28;20038;-74
2021/04/03 07:36:13;;;;;;;3.83;1.20;;;8.60;69.90;;;;;;4994108;28;20026;-74
2021/04/03 07:38:38;;;;;;;8.57;1.90;;;8.60;69.80;;;;;;4994865;28;20520;-73
2021/04/03 07:41:17;;;;;;;4.88;1.27;;;8.70;69.70;;;;;;4994869;28;20030;-74
2021/04/03 07:43:44;;;;;;;4.80;1.40;;;8.80;69.50;;;;;;4994860;28;20423;-75
2021/04/03 07:46:25;;;;;;;5.57;1.27;;;8.80;69.40;;;;;;4994276;28;20018;-74
2021/04/03 07:48:59;;;;;;;4.85;1.70;;;8.90;69.20;;;;;;4994577;28;20368;-74
2021/04/03 07:51:24;;;;;;;5.07;1.30;;;9.00;69.00;;;;;;4994284;28;20037;-74
2021/04/03 07:53:52;;;;;;;1.98;0.98;;;9.00;68.80;;;;;;4994733;28;20475;-74
2021/04/03 07:56:21;;;;;;;7.72;2.22;;;9.10;68.70;;;;;;4993836;28;20027;-75
2021/04/03 07:58:56;;;;;;;3.42;1.33;;;9.20;68.50;;;;;;4977079;28;20030;-74
2021/04/03 08:01:25;;;;;;;9.95;1.73;;;9.30;68.30;;;;;;4994056;28;20031;-75
2021/04/03 08:04:01;;;;;;;4.47;1.92;;;9.30;68.20;;;;;;4994538;28;20031;-74
2021/04/03 08:06:40;;;;;;;4.78;1.40;;;9.40;68.10;;;;;;4993859;28;20116;-74
2021/04/03 08:09:10;;;;;;;2.83;1.00;;;9.50;67.90;;;;;;4994234;28;20487;-75
2021/04/03 08:11:36;;;;;;;12.23;1.88;;;9.50;67.70;;;;;;4994318;28;20203;-74
2021/04/03 08:14:03;;;;;;;3.72;1.20;;;9.50;67.70;;;;;;4994241;28;20078;-74
2021/04/03 08:16:32;;;;;;;3.45;1.15;;;9.60;67.80;;;;;;4993064;28;20045;-75
2021/04/03 08:18:59;;;;;;;4.72;1.25;;;9.50;67.70;;;;;;4994305;28;20081;-75
2021/04/03 08:21:28;;;;;;;3.70;1.52;;;9.50;67.60;;;;;;4993695;28;20046;-75
2021/04/03 08:23:56;;;;;;;8.40;2.00;;;9.50;67.60;;;;;;4994109;28;20046;-74
2021/04/03 08:26:23;;;;;;;6.88;1.48;;;9.50;67.60;;;;;;4993754;28;20140;-74
2021/04/03 08:28:50;;;;;;;6.50;1.30;;;9.60;67.40;;;;;;4994292;28;20536;-73
2021/04/03 08:31:16;;;;;;;4.03;1.13;;;9.70;67.20;;;;;;4993229;28;20030;-74
2021/04/03 08:33:44;;;;;;;5.28;1.40;;;9.80;67.00;;;;;;4993943;28;20086;-75
2021/04/03 08:36:15;;;;;;;2.58;1.20;;;9.90;66.70;;;;;;4993334;28;20026;-74
2021/04/03 08:38:43;;;;;;;3.78;1.27;;;10.00;66.40;;;;;;4993607;28;20032;-74
2021/04/03 08:41:10;;;;;;;4.05;1.52;;;10.10;66.20;;;;;;4993788;28;20077;-75
2021/04/03 08:43:36;;;;;;;3.38;1.15;;;10.30;65.90;;;;;;4993635;28;20027;-74
2021/04/03 08:46:08;;;;;;;4.90;1.10;;;10.40;65.60;;;;;;4993838;28;20022;-75
2021/04/03 08:48:36;;;;;;;2.67;1.17;;;10.60;65.20;;;;;;4993078;28;20534;-74
2021/04/03 08:51:04;;;;;;;3.78;1.30;;;10.70;65.10;;;;;;4993447;28;20109;-74
2021/04/03 08:54:00;;;;;;;4.93;1.38;;;10.80;64.80;;;;;;4992767;28;20206;-75
2021/04/03 08:56:34;;;;;;;11.02;1.65;;;11.00;64.60;;;;;;4991445;28;20034;-75
2021/04/03 08:59:02;;;;;;;5.78;1.80;;;11.10;64.40;;;;;;4993352;28;20098;-74
2021/04/03 09:01:30;;;;;;;2.72;1.15;;;11.10;64.20;;;;;;4992724;28;20034;-75
2021/04/03 09:04:03;;;;;;;5.50;2.72;;;11.10;64.10;;;;;;4993454;28;20029;-75
2021/04/03 09:06:43;;;;;;;2.88;1.52;;;11.00;64.10;;;;;;4992757;28;20029;-74
2021/04/03 09:09:20;;;;;;;4.57;1.67;;;10.90;64.20;;;;;;4975765;28;20383;-74
2021/04/03 09:11:58;;;;;;;3.85;1.20;;;10.70;64.60;;;;;;4993286;28;20073;-74
2021/04/03 09:14:39;;;;;;;5.60;1.27;;;10.70;64.80;;;;;;4992559;28;20519;-74
2021/04/03 09:17:22;;;;;;;2.65;0.85;;;10.60;65.00;;;;;;4989758;28;20040;-74
2021/04/03 09:19:48;;;;;;;2.50;1.67;;;10.50;65.00;;;;;;4983027;28;20118;-73
2021/04/03 09:22:20;;;;;;;6.50;2.13;;;10.40;64.90;;;;;;4972973;28;20027;-73
2021/04/03 09:24:56;;;;;;;3.17;1.10;;;10.50;64.70;;;;;;4973544;28;20047;-74
2021/04/03 09:27:22;;;;;;;3.33;1.40;;;10.70;64.60;;;;;;4972052;28;20352;-74
2021/04/03 09:29:50;;;;;;;6.28;1.58;;;10.80;64.10;;;;;;4973423;28;20459;-74
2021/04/03 09:32:17;;;;;;;4.80;1.30;;;11.00;63.80;;;;;;4991492;28;20030;-75
2021/04/03 09:34:43;;;;;;;4.72;1.13;;;11.10;63.40;;;;;;4987208;28;20019;-75
2021/04/03 09:37:17;;;;;;;9.82;1.50;;;11.20;63.10;;;;;;4973558;28;20018;-75
2021/04/03 09:39:55;;;;;;;5.53;1.30;;;11.20;63.00;;;;;;4975314;28;20109;-75
2021/04/03 09:42:25;;;;;;;4.47;1.20;;;11.20;63.10;;;;;;4974930;28;20034;-74
2021/04/03 09:44:53;;;;;;;4.35;1.45;;;11.20;63.10;;;;;;4975584;28;20045;-75
2021/04/03 09:47:19;;;;;;;5.90;1.33;;;11.10;62.70;;;;;;4992067;28;20030;-75
2021/04/03 09:49:45;;;;;;;7.85;1.30;;;11.10;62.60;;;;;;4991533;28;20018;-74
2021/04/03 09:52:13;;;;;;;7.68;1.55;;;11.20;62.30;;;;;;4992761;28;20030;-74
2021/04/03 09:54:40;;;;;;;2.13;1.05;;;11.40;62.00;;;;;;4991914;28;20022;-75
2021/04/03 09:57:06;;;;;;;3.78;1.60;;;11.50;61.60;;;;;;4992543;28;20058;-76
2021/04/03 09:59:32;;;;;;;5.75;1.40;;;11.70;61.30;;;;;;4992259;28;20340;-75
2021/04/03 10:01:59;;;;;;;3.30;1.08;;;11.80;60.90;;;;;;4992931;28;20018;-75
2021/04/03 10:04:25;;;;;;;1.90;0.85;;;11.90;60.50;;;;;;4992485;28;20076;-75
2021/04/03 10:06:52;;;;;;;5.20;1.58;;;11.90;60.40;;;;;;4994615;28;20026;-75
2021/04/03 10:09:18;;;;;;;5.50;0.88;;;12.00;60.50;;;;;;4993904;28;20073;-74
2021/04/03 10:11:44;;;;;;;3.25;1.17;;;12.10;60.20;;;;;;4994241;28;20014;-75
2021/04/03 10:14:10;;;;;;;2.38;0.85;;;12.20;60.00;;;;;;4992547;28;20018;-75
2021/04/03 10:16:36;;;;;;;3.28;1.60;;;12.20;59.90;;;;;;4992030;28;20596;-74
2021/04/03 10:19:02;;;;;;;4.38;1.25;;;12.20;59.80;;;;;;4992266;28;20025;-74
2021/04/03 10:21:28;;;;;;;3.90;1.52;;;12.10;59.70;;;;;;4991935;28;20022;-74
2021/04/03 10:23:54;;;;;;;4.93;1.65;;;12.00;59.80;;;;;;4992482;28;20045;-75
2021/04/03 10:26:20;;;;;;;5.03;1.17;;;11.90;59.90;;;;;;4991758;28;20018;-73
2021/04/03 10:28:45;;;;;;;2.72;1.15;;;11.80;60.10;;;;;;4991807;28;20374;-74
2021/04/03 10:31:12;;;;;;;2.50;1.23;;;11.80;59.70;;;;;;4992210;28;20018;-74
2021/04/03 10:33:38;;;;;;;2.65;0.90;;;11.80;59.60;;;;;;4991544;28;20751;-73
2021/04/03 10:36:06;;;;;;;2.63;1.15;;;11.80;59.70;;;;;;4992120;28;20022;-74
2021/04/03 10:38:32;;;;;;;8.48;1.60;;;11.90;59.60;;;;;;4991914;28;20026;-75
2021/04/03 10:40:58;;;;;;;7.50;2.17;;;11.90;59.30;;;;;;4991544;28;20050;-74
2021/04/03 10:43:23;;;;;;;4.75;1.25;;;11.80;59.30;;;;;;4973931;28;20058;-74
2021/04/03 10:45:49;;;;;;;5.50;1.50;;;11.70;59.50;;;;;;4991934;28;20443;-74
2021/04/03 10:48:15;;;;;;;9.10;1.83;;;11.70;59.30;;;;;;4992096;28;20015;-75
2021/04/03 10:50:41;;;;;;;2.25;0.90;;;11.70;59.20;;;;;;4991580;28;20022;-74
2021/04/03 10:53:07;;;;;;;5.85;1.33;;;11.70;59.00;;;;;;4991861;28;20403;-75
2021/04/03 10:55:34;;;;;;;3.50;1.35;;;11.80;59.00;;;;;;4991293;28;20025;-75
2021/04/03 10:57:59;;;;;;;6.22;1.08;;;11.90;58.90;;;;;;4992230;28;20466;-76
2021/04/03 11:00:26;;;;;;;2.97;0.90;;;12.00;58.70;;;;;;4974262;28;20026;-74
2021/04/03 11:02:51;;;;;;;1.65;0.88;;;12.20;58.40;;;;;;4995410;28;20019;-74
2021/04/03 11:05:17;;;;;;;2.40;0.90;;;12.40;57.90;;;;;;4995433;28;20023;-75
2021/04/03 11:07:43;;;;;;;1.17;0.70;;;12.70;57.30;;;;;;4995073;28;20018;-75
2021/04/03 11:10:09;;;;;;;3.78;1.23;;;12.90;56.70;;;;;;4977995;28;20458;-75
2021/04/03 11:12:35;;;;;;;4.20;1.05;;;13.00;56.20;;;;;;4994912;28;20532;-75
2021/04/03 11:15:01;;;;;;;3.03;1.13;;;13.00;56.10;;;;;;4995477;28;20010;-75
2021/04/03 11:17:27;;;;;;;9.07;1.40;;;12.90;56.00;;;;;;4994710;28;20176;-75
2021/04/03 11:19:52;;;;;;;5.50;1.40;;;12.90;56.20;;;;;;4995511;28;20019;-74
2021/04/03 11:22:18;;;;;;;2.17;1.00;;;12.90;56.40;;;;;;4995334;28;20027;-75
2021/04/03 11:24:44;;;;;;;4.05;1.00;;;13.00;56.30;;;;;;4994299;28;20042;-75
2021/04/03 11:27:09;;;;;;;4.85;1.17;;;13.10;56.10;;;;;;4978112;28;20014;-74
2021/04/03 11:29:35;;;;;;;2.83;1.00;;;13.30;55.30;;;;;;4994592;28;20495;-74
2021/04/03 11:32:00;;;;;;;3.28;1.17;;;13.30;55.20;;;;;;4995574;28;20022;-75
2021/04/03 11:34:26;;;;;;;5.60;1.50;;;13.50;55.10;;;;;;4994581;28;20042;-75
2021/04/03 11:36:52;;;;;;;6.85;1.10;;;13.50;55.10;;;;;;4977494;28;20354;-75
2021/04/03 11:39:18;;;;;;;2.35;1.10;;;13.70;54.80;;;;;;4977377;28;20429;-75
2021/04/03 11:41:44;;;;;;;5.60;1.85;;;13.80;54.50;;;;;;4963286;28;20066;-76
2021/04/03 11:44:10;;;;;;;3.03;0.90;;;14.00;54.40;;;;;;4991516;28;20034;-74
2021/04/03 11:46:35;;;;;;;2.15;1.08;;;14.10;54.20;;;;;;5010837;28;20417;-76
2021/04/03 11:49:02;;;;;;;4.82;0.90;;;14.10;53.50;;;;;;5003640;28;20105;-75
2021/04/03 11:51:29;;;;;;;2.92;0.93;;;14.30;53.50;;;;;;5004095;28;20110;-76
2021/04/03 11:53:55;;;;;;;6.43;1.10;;;14.60;52.90;;;;;;5008615;28;20040;-76
2021/04/03 11:56:20;;;;;;;3.58;0.95;;;14.80;52.50;;;;;;5003195;28;20026;-75
2021/04/03 11:58:46;;;;;;;3.05;0.93;;;14.80;52.30;;;;;;5003440;28;20038;-76
2021/04/03 12:01:12;;;;;;;1.42;0.75;;;14.90;52.50;;;;;;5011352;28;20026;-75
2021/04/03 12:03:37;;;;;;;1.00;0.60;;;14.80;52.50;;;;;;4993447;28;20125;-75
2021/04/03 12:06:03;;;;;;;5.00;1.45;;;14.70;52.50;;;;;;5011679;28;20049;-75
2021/04/03 12:08:29;;;;;;;2.63;0.85;;;14.50;52.50;;;;;;5000084;28;20025;-76
2021/04/03 12:10:54;;;;;;;1.63;0.90;;;14.40;52.90;;;;;;4993555;28;20038;-76
2021/04/03 12:13:20;;;;;;;2.88;1.15;;;14.60;52.90;;;;;;5010461;28;20033;-75
2021/04/03 12:15:46;;;;;;;1.48;0.90;;;14.90;52.20;;;;;;5004997;28;20030;-75
2021/04/03 12:18:12;;;;;;;1.42;0.90;;;15.10;51.50;;;;;;5002478;28;20076;-76
2021/04/03 12:20:37;;;;;;;2.13;0.90;;;15.20;51.20;;;;;;4993746;28;20118;-74
2021/04/03 12:23:03;;;;;;;4.07;0.93;;;15.10;51.20;;;;;;5011788;28;20463;-76
2021/04/03 12:25:29;;;;;;;2.75;0.85;;;15.20;51.40;;;;;;5009575;28;20092;-75
2021/04/03 12:27:55;;;;;;;3.25;0.90;;;15.20;50.90;;;;;;4991931;28;20038;-75
2021/04/03 12:30:21;;;;;;;4.28;1.20;;;15.10;51.00;;;;;;5012366;28;20025;-82
2021/04/03 12:32:47;;;;;;;4.63;1.02;;;15.00;51.20;;;;;;5015855;28;20462;-81
2021/04/03 12:35:13;;;;;;;2.78;1.05;;;15.20;51.10;;;;;;5021874;28;20081;-85
2021/04/03 12:37:39;;;;;;;3.83;1.00;;;15.30;50.80;;;;;;4992266;28;20470;-82
2021/04/03 12:40:06;;;;;;;3.05;1.05;;;15.40;50.80;;;;;;5013930;28;20017;-83
2021/04/03 12:42:33;;;;;;;3.42;0.90;;;15.40;50.80;;;;;;4987184;28;20045;-84
2021/04/03 12:44:59;;;;;;;1.77;0.70;;;15.50;50.70;;;;;;4990893;28;20026;-82
2021/04/03 12:47:25;;;;;;;2.92;0.85;;;15.60;50.30;;;;;;5011908;28;20021;-86
2021/04/03 12:49:51;;;;;;;2.78;0.80;;;15.50;50.10;;;;;;4993220;28;20022;-86
2021/04/03 12:52:16;;;;;;;4.32;0.85;;;15.40;50.10;;;;;;5012620;28;20092;-82
2021/04/03 12:54:42;;;;;;;4.70;1.00;;;15.30;50.00;;;;;;4994216;28;20025;-83
2021/04/03 12:57:09;;;;;;;1.70;0.90;;;15.30;49.90;;;;;;5002230;28;20037;-82